Hawthorne Army Ammunition Pl, Nevada
Current Conditions -  °F | °C
As of 3:52 PM on Wednesday 28 Jan 2015 (Local Time) from KBAN Reporting Station
Few Clouds Few Clouds  
Wind Chill: 45°   Ceiling: Unl
Heat Index: 48°   Visibility: NA
Dew Point: 24°   Wind: 6mph
Humidity: 39%   Direction: 60°ENE
Pressure: 30.22"   Gusts: NA
Location:  38.6331°N, 118.656°W
Report Text: KBAN 282352Z AUTO 06005KT FEW060 09/M04 A3022 RMK AO2 SLP229 T00891044 10106 20017 55006 $
Loading
Personal Weather Stations






























Interactive Weather Map New forecast layout! Learn more

10-Day Weather Forecast

Advertisements
Track Severe Weather on mobile